Time;durP1;ratioP1;P1;durP2;ratioP2;P2;SDS_P1;SDS_P2;PMS_P1;PMS_P2;Temp;Humidity;BMP_temperature;BMP_pressure;BME280_temperature;BME280_humidity;BME280_pressure;Samples;Min_cycle;Max_cycle;Signal;HPM_P1;HPM_P2
2022/03/10 00:01:34;;;;;;;13.10;10.53;;;;;;;;;;5037043;28;20253;-78
2022/03/10 00:04:02;;;;;;;13.37;11.10;;;;;;;;;;5036791;28;20612;-78
2022/03/10 00:06:30;;;;;;;14.30;11.80;;;;;;;;;;5035844;28;20706;-78
2022/03/10 00:09:02;;;;;;;15.47;11.83;;;;;;;;;;5037832;28;20215;-78
2022/03/10 00:11:30;;;;;;;15.50;11.67;;;;;;;;;;5056979;28;20248;-78
2022/03/10 00:13:59;;;;;;;13.83;11.63;;;;;;;;;;5055838;28;20229;-78
2022/03/10 00:16:27;;;;;;;15.33;12.00;;;;;;;;;;5035520;28;20222;-78
2022/03/10 00:18:56;;;;;;;15.57;12.60;;;;;;;;;;5035973;28;20619;-78
2022/03/10 00:21:25;;;;;;;16.60;12.97;;;;;;;;;;5036443;28;20298;-78
2022/03/10 00:23:53;;;;;;;16.43;13.10;;;;;;;;;;5040272;28;20226;-78
2022/03/10 00:26:23;;;;;;;15.67;13.17;;;;;;;;;;5043814;28;20234;-78
2022/03/10 00:28:51;;;;;;;15.60;12.70;;;;;;;;;;5048763;28;20616;-78
2022/03/10 00:31:20;;;;;;;17.30;13.27;;;;;;;;;;5046517;28;20201;-78
2022/03/10 00:33:48;;;;;;;16.67;12.23;;;;;;;;;;5036276;28;20253;-78
2022/03/10 00:36:17;;;;;;;15.67;12.03;;;;;;;;;;5037080;28;20231;-78
2022/03/10 00:38:45;;;;;;;16.93;13.13;;;;;;;;;;5041242;28;20207;-78
2022/03/10 00:41:14;;;;;;;16.60;12.37;;;;;;;;;;5035962;28;20663;-78
2022/03/10 00:43:44;;;;;;;16.20;13.27;;;;;;;;;;5036617;28;20199;-78
2022/03/10 00:46:13;;;;;;;17.90;13.70;;;;;;;;;;5039544;28;20223;-78
2022/03/10 00:48:41;;;;;;;18.10;13.13;;;;;;;;;;5035486;28;20236;-78
2022/03/10 00:51:10;;;;;;;16.80;13.73;;;;;;;;;;5035351;28;20207;-78
2022/03/10 00:53:38;;;;;;;18.30;14.03;;;;;;;;;;5036078;28;20276;-78
2022/03/10 00:56:07;;;;;;;17.93;14.23;;;;;;;;;;5033953;28;20612;-78
2022/03/10 00:58:36;;;;;;;17.90;14.03;;;;;;;;;;5044013;28;20646;-78
2022/03/10 01:01:06;;;;;;;17.20;14.23;;;;;;;;;;5055683;28;20209;-78
2022/03/10 01:03:34;;;;;;;15.93;12.90;;;;;;;;;;5042923;28;20199;-78
2022/03/10 01:06:03;;;;;;;17.10;13.23;;;;;;;;;;5045330;28;20569;-78
2022/03/10 01:08:31;;;;;;;16.17;13.17;;;;;;;;;;5034497;28;20213;-78
2022/03/10 01:11:00;;;;;;;16.70;14.03;;;;;;;;;;5050580;28;20200;-78
2022/03/10 01:13:28;;;;;;;18.27;12.67;;;;;;;;;;5054917;28;20275;-78
2022/03/10 01:15:57;;;;;;;17.03;13.67;;;;;;;;;;5041302;28;20241;-78
2022/03/10 01:18:29;;;;;;;17.23;13.43;;;;;;;;;;5038658;28;20293;-78
2022/03/10 01:20:57;;;;;;;16.77;12.63;;;;;;;;;;5034925;28;20634;-78
2022/03/10 01:23:26;;;;;;;15.70;13.40;;;;;;;;;;5049489;28;20756;-78
2022/03/10 01:25:54;;;;;;;16.90;13.33;;;;;;;;;;5054723;28;20266;-78
2022/03/10 01:28:23;;;;;;;17.87;13.20;;;;;;;;;;5039705;28;20218;-78
2022/03/10 01:30:51;;;;;;;16.10;13.57;;;;;;;;;;5049358;28;20228;-78
2022/03/10 01:33:19;;;;;;;17.87;13.43;;;;;;;;;;5054102;28;20219;-78
2022/03/10 01:35:49;;;;;;;19.33;14.20;;;;;;;;;;5037072;28;20205;-78
2022/03/10 01:38:18;;;;;;;15.23;12.77;;;;;;;;;;5034395;28;20207;-78
2022/03/10 01:40:46;;;;;;;16.67;13.10;;;;;;;;;;5034724;28;20214;-78
2022/03/10 01:43:14;;;;;;;15.93;12.53;;;;;;;;;;5035227;28;20209;-78
2022/03/10 01:45:43;;;;;;;17.90;13.13;;;;;;;;;;5034429;28;20204;-78
2022/03/10 01:48:11;;;;;;;17.90;13.07;;;;;;;;;;5040492;28;20549;-78
2022/03/10 01:50:40;;;;;;;16.63;13.33;;;;;;;;;;5035267;28;20263;-77
2022/03/10 01:53:10;;;;;;;16.90;13.57;;;;;;;;;;5051680;28;20209;-78
2022/03/10 01:55:38;;;;;;;15.57;12.23;;;;;;;;;;5054287;28;20689;-78
2022/03/10 01:58:07;;;;;;;15.63;12.20;;;;;;;;;;5054066;28;20228;-77
2022/03/10 02:00:35;;;;;;;15.70;12.67;;;;;;;;;;5054081;28;20208;-78
2022/03/10 02:03:04;;;;;;;17.67;12.97;;;;;;;;;;5041293;28;20265;-78
2022/03/10 02:05:33;;;;;;;16.50;13.10;;;;;;;;;;5035378;28;20609;-78
2022/03/10 02:10:49;;;;;;;18.30;13.23;;;;;;;;;;5034498;28;20214;-78
2022/03/10 02:13:17;;;;;;;17.70;14.03;;;;;;;;;;5048340;28;20214;-78
2022/03/10 02:18:31;;;;;;;17.23;13.30;;;;;;;;;;5066088;28;20700;-78
2022/03/10 02:21:00;;;;;;;17.20;13.40;;;;;;;;;;5068691;28;20660;-77
2022/03/10 02:23:30;;;;;;;16.37;13.20;;;;;;;;;;5053766;28;20587;-77
2022/03/10 02:25:59;;;;;;;17.27;13.30;;;;;;;;;;5051014;28;20207;-78
2022/03/10 02:28:28;;;;;;;16.27;13.23;;;;;;;;;;5053109;28;20213;-77
2022/03/10 02:30:56;;;;;;;20.70;13.83;;;;;;;;;;5040972;28;20227;-77
2022/03/10 02:33:25;;;;;;;18.17;13.03;;;;;;;;;;5050330;28;20242;-77
2022/03/10 02:35:53;;;;;;;16.77;13.47;;;;;;;;;;5034549;28;20229;-77
2022/03/10 02:38:22;;;;;;;19.17;13.10;;;;;;;;;;5033484;28;20209;-77
2022/03/10 02:40:52;;;;;;;17.63;12.90;;;;;;;;;;5039158;28;20216;-77
2022/03/10 02:43:21;;;;;;;17.37;13.70;;;;;;;;;;5038786;28;20238;-78
2022/03/10 02:45:50;;;;;;;16.17;12.77;;;;;;;;;;5047504;28;20199;-77
2022/03/10 02:48:19;;;;;;;17.47;13.13;;;;;;;;;;5053528;28;20208;-77
2022/03/10 02:50:48;;;;;;;17.07;12.80;;;;;;;;;;5055970;28;20251;-77
2022/03/10 02:53:16;;;;;;;16.57;13.17;;;;;;;;;;5073913;28;20204;-77
2022/03/10 02:55:45;;;;;;;17.40;13.60;;;;;;;;;;5067996;28;20281;-77
2022/03/10 02:58:15;;;;;;;16.37;13.30;;;;;;;;;;5052573;28;20337;-77
2022/03/10 03:00:44;;;;;;;17.60;13.17;;;;;;;;;;5048341;28;20196;-77
2022/03/10 03:03:13;;;;;;;17.73;13.00;;;;;;;;;;5033120;28;20224;-77
2022/03/10 03:05:43;;;;;;;16.70;13.40;;;;;;;;;;5033599;28;20228;-78
2022/03/10 03:08:12;;;;;;;17.50;12.67;;;;;;;;;;5033601;28;20254;-77
2022/03/10 03:10:43;;;;;;;17.33;12.87;;;;;;;;;;5032987;28;20553;-78
2022/03/10 03:13:11;;;;;;;15.80;12.77;;;;;;;;;;5033540;28;20218;-78
2022/03/10 03:15:41;;;;;;;18.40;12.77;;;;;;;;;;5033913;28;20220;-77
2022/03/10 03:18:10;;;;;;;17.53;13.27;;;;;;;;;;5041785;28;20278;-77
2022/03/10 03:20:38;;;;;;;19.20;13.27;;;;;;;;;;5033241;28;20252;-77
2022/03/10 03:23:07;;;;;;;20.60;12.57;;;;;;;;;;5046005;28;20545;-77
2022/03/10 03:25:35;;;;;;;16.60;12.07;;;;;;;;;;5053232;28;20722;-78
2022/03/10 03:28:05;;;;;;;17.07;13.03;;;;;;;;;;5045744;28;20274;-78
2022/03/10 03:30:34;;;;;;;17.30;12.33;;;;;;;;;;5053011;28;20211;-77
2022/03/10 03:33:04;;;;;;;15.80;12.53;;;;;;;;;;5052474;28;20220;-77
2022/03/10 03:35:32;;;;;;;17.63;12.80;;;;;;;;;;5052934;28;20231;-77
2022/03/10 03:38:01;;;;;;;14.77;12.17;;;;;;;;;;5052387;28;20687;-78
2022/03/10 03:40:29;;;;;;;16.27;12.77;;;;;;;;;;5052824;28;20199;-78
2022/03/10 03:42:57;;;;;;;15.83;12.23;;;;;;;;;;5036741;28;20208;-77
2022/03/10 03:45:26;;;;;;;16.60;12.70;;;;;;;;;;5039553;28;20195;-77
2022/03/10 03:47:54;;;;;;;16.40;12.63;;;;;;;;;;5033069;28;20236;-77
2022/03/10 03:50:24;;;;;;;15.83;12.73;;;;;;;;;;5035373;28;20216;-77
2022/03/10 03:52:53;;;;;;;15.67;12.83;;;;;;;;;;5036517;28;20208;-77
2022/03/10 03:55:21;;;;;;;16.30;12.40;;;;;;;;;;5036446;28;20220;-77
2022/03/10 03:57:49;;;;;;;18.57;12.20;;;;;;;;;;5036983;28;20235;-77
2022/03/10 04:00:18;;;;;;;15.70;12.93;;;;;;;;;;5036751;28;20211;-77
2022/03/10 04:02:47;;;;;;;16.77;12.77;;;;;;;;;;5036961;28;20257;-78
2022/03/10 04:05:16;;;;;;;15.33;12.60;;;;;;;;;;5036429;28;20226;-77
2022/03/10 04:07:46;;;;;;;17.87;12.90;;;;;;;;;;5036118;28;20556;-78
2022/03/10 04:10:17;;;;;;;17.30;13.33;;;;;;;;;;5036394;28;20543;-77
2022/03/10 04:12:45;;;;;;;16.63;13.50;;;;;;;;;;5047379;28;20207;-77
2022/03/10 04:15:13;;;;;;;17.70;12.87;;;;;;;;;;5035902;28;20240;-77
2022/03/10 04:17:42;;;;;;;15.20;12.17;;;;;;;;;;5036381;28;20239;-77
2022/03/10 04:20:13;;;;;;;16.60;12.40;;;;;;;;;;5037249;28;20208;-77
2022/03/10 04:22:42;;;;;;;16.27;12.50;;;;;;;;;;5036315;28;20607;-77
2022/03/10 04:25:11;;;;;;;16.40;12.57;;;;;;;;;;5036610;28;20204;-77
2022/03/10 04:27:41;;;;;;;19.07;13.13;;;;;;;;;;5045729;28;20240;-77
2022/03/10 04:30:09;;;;;;;16.07;12.67;;;;;;;;;;5035975;28;20199;-77
2022/03/10 04:32:42;;;;;;;16.80;12.17;;;;;;;;;;5036104;28;20204;-77
2022/03/10 04:35:10;;;;;;;16.67;12.83;;;;;;;;;;5043932;28;20535;-77
2022/03/10 04:37:39;;;;;;;18.27;11.87;;;;;;;;;;5043696;28;20227;-77
2022/03/10 04:40:08;;;;;;;15.90;12.13;;;;;;;;;;5037095;28;20208;-77
2022/03/10 04:42:39;;;;;;;16.63;11.90;;;;;;;;;;5039767;28;20207;-77
2022/03/10 04:45:08;;;;;;;16.30;12.50;;;;;;;;;;5054327;28;20203;-77
2022/03/10 04:47:36;;;;;;;16.83;12.37;;;;;;;;;;5038949;28;20281;-77
2022/03/10 04:50:05;;;;;;;16.10;12.20;;;;;;;;;;5035325;28;20622;-77
2022/03/10 04:52:33;;;;;;;14.97;12.50;;;;;;;;;;5035640;28;20234;-77
2022/03/10 04:55:02;;;;;;;18.70;12.93;;;;;;;;;;5037504;28;20250;-77
2022/03/10 04:57:30;;;;;;;15.17;11.33;;;;;;;;;;5034909;28;20232;-77
2022/03/10 05:00:00;;;;;;;15.77;12.23;;;;;;;;;;5037667;28;20361;-78
2022/03/10 05:02:30;;;;;;;14.57;11.97;;;;;;;;;;5042221;28;20594;-78
2022/03/10 05:04:59;;;;;;;17.73;12.20;;;;;;;;;;5061909;28;20665;-77
2022/03/10 05:07:28;;;;;;;15.23;12.13;;;;;;;;;;5041931;28;20224;-79
2022/03/10 05:09:56;;;;;;;16.67;12.77;;;;;;;;;;5051798;28;20300;-78
2022/03/10 05:12:25;;;;;;;16.30;12.47;;;;;;;;;;5062222;28;20214;-78
2022/03/10 05:14:53;;;;;;;22.13;15.13;;;;;;;;;;5044460;28;20215;-77
2022/03/10 05:17:24;;;;;;;17.80;14.17;;;;;;;;;;5046766;28;20766;-77
2022/03/10 05:19:52;;;;;;;19.37;14.20;;;;;;;;;;5047129;28;20208;-78
2022/03/10 05:22:21;;;;;;;17.63;13.00;;;;;;;;;;5048013;28;20668;-77
2022/03/10 05:24:50;;;;;;;17.03;13.47;;;;;;;;;;5059483;28;20281;-77
2022/03/10 05:27:18;;;;;;;17.13;13.07;;;;;;;;;;5057317;28;20228;-78
2022/03/10 05:29:46;;;;;;;18.00;13.80;;;;;;;;;;5058937;28;20211;-77
2022/03/10 05:32:18;;;;;;;17.67;13.20;;;;;;;;;;5058522;28;20651;-78
2022/03/10 05:34:48;;;;;;;19.10;13.97;;;;;;;;;;5050742;28;20597;-78
2022/03/10 05:37:16;;;;;;;18.53;13.70;;;;;;;;;;5041774;28;20235;-77
2022/03/10 05:39:44;;;;;;;19.70;13.70;;;;;;;;;;5043196;28;20208;-78
2022/03/10 05:42:13;;;;;;;19.77;14.83;;;;;;;;;;5043317;28;20203;-78
2022/03/10 05:44:42;;;;;;;18.77;13.97;;;;;;;;;;5042247;28;20200;-77
2022/03/10 05:47:11;;;;;;;21.63;14.30;;;;;;;;;;5047124;28;20667;-78
2022/03/10 05:49:39;;;;;;;18.20;14.03;;;;;;;;;;5054510;28;20525;-78
2022/03/10 05:52:09;;;;;;;21.47;13.47;;;;;;;;;;5045437;28;20203;-77
2022/03/10 05:54:37;;;;;;;21.23;13.77;;;;;;;;;;5044408;28;20250;-78
2022/03/10 05:57:06;;;;;;;17.80;13.50;;;;;;;;;;5048733;28;20708;-77
2022/03/10 05:59:34;;;;;;;18.20;13.33;;;;;;;;;;5062511;28;20253;-78
2022/03/10 06:02:03;;;;;;;17.57;13.37;;;;;;;;;;5057517;28;20720;-78
2022/03/10 06:04:31;;;;;;;18.43;12.73;;;;;;;;;;5048338;28;20204;-76
2022/03/10 06:07:00;;;;;;;19.60;13.17;;;;;;;;;;5053419;28;20218;-76
2022/03/10 06:09:30;;;;;;;15.60;12.17;;;;;;;;;;5061362;28;20253;-77
2022/03/10 06:11:58;;;;;;;17.77;13.13;;;;;;;;;;5061080;28;20211;-78
2022/03/10 06:14:27;;;;;;;17.97;13.63;;;;;;;;;;5041915;28;20204;-78
2022/03/10 06:16:56;;;;;;;17.80;13.83;;;;;;;;;;5056501;28;20227;-78
2022/03/10 06:19:25;;;;;;;15.47;12.37;;;;;;;;;;5052801;28;20258;-77
2022/03/10 06:21:54;;;;;;;15.93;12.60;;;;;;;;;;5051161;28;20210;-77
2022/03/10 06:24:22;;;;;;;18.07;13.10;;;;;;;;;;5040063;28;20234;-76
2022/03/10 06:26:52;;;;;;;17.30;13.23;;;;;;;;;;5042668;28;20223;-77
2022/03/10 06:29:20;;;;;;;15.90;12.10;;;;;;;;;;5055645;28;20203;-78
2022/03/10 06:31:51;;;;;;;19.03;13.77;;;;;;;;;;5046045;28;20199;-76
2022/03/10 06:34:19;;;;;;;15.23;12.03;;;;;;;;;;5050379;28;20284;-77
2022/03/10 06:36:48;;;;;;;16.23;11.53;;;;;;;;;;5042321;28;20215;-77
2022/03/10 06:39:16;;;;;;;17.23;12.60;;;;;;;;;;5053584;28;20204;-77
2022/03/10 06:41:45;;;;;;;14.33;11.77;;;;;;;;;;5054919;28;20744;-76
2022/03/10 06:44:16;;;;;;;15.00;12.37;;;;;;;;;;5044893;28;20231;-76
2022/03/10 06:46:45;;;;;;;14.33;11.40;;;;;;;;;;5035005;28;20223;-79
2022/03/10 06:49:15;;;;;;;17.63;13.33;;;;;;;;;;5036328;28;20188;-77
2022/03/10 06:51:44;;;;;;;16.87;12.83;;;;;;;;;;5035539;28;20207;-78
2022/03/10 06:54:12;;;;;;;17.00;12.40;;;;;;;;;;5035731;28;20206;-76
2022/03/10 06:56:41;;;;;;;18.33;13.40;;;;;;;;;;5040552;28;20228;-76
2022/03/10 06:59:09;;;;;;;17.17;12.80;;;;;;;;;;5051823;28;20620;-76
2022/03/10 07:01:39;;;;;;;16.07;12.97;;;;;;;;;;5056025;28;20254;-77
2022/03/10 07:04:07;;;;;;;17.43;12.93;;;;;;;;;;5056137;28;20201;-77
2022/03/10 07:06:36;;;;;;;17.20;12.97;;;;;;;;;;5035472;28;20234;-76
2022/03/10 07:09:05;;;;;;;14.37;12.80;;;;;;;;;;5035448;28;20210;-77
2022/03/10 07:11:33;;;;;;;16.17;13.13;;;;;;;;;;5035588;28;20205;-76
2022/03/10 07:14:01;;;;;;;18.10;12.87;;;;;;;;;;5036285;28;20202;-77
2022/03/10 07:16:30;;;;;;;17.63;12.67;;;;;;;;;;5051914;28;20215;-77
2022/03/10 07:19:00;;;;;;;15.37;12.37;;;;;;;;;;5056331;28;20221;-77
2022/03/10 07:21:30;;;;;;;15.20;11.80;;;;;;;;;;5048315;28;20311;-76
2022/03/10 07:23:58;;;;;;;13.73;11.10;;;;;;;;;;5046462;28;20212;-77
2022/03/10 07:26:27;;;;;;;14.77;10.37;;;;;;;;;;5045687;28;20231;-77
2022/03/10 07:28:59;;;;;;;13.97;11.10;;;;;;;;;;5058548;28;20228;-77
2022/03/10 07:31:27;;;;;;;15.40;11.30;;;;;;;;;;5060260;28;20239;-77
2022/03/10 07:33:58;;;;;;;12.20;9.73;;;;;;;;;;5057269;28;20203;-77
2022/03/10 07:36:28;;;;;;;12.23;10.50;;;;;;;;;;5050691;28;20234;-77
2022/03/10 07:38:59;;;;;;;11.30;10.10;;;;;;;;;;5038154;28;20682;-77
2022/03/10 07:41:27;;;;;;;15.10;9.50;;;;;;;;;;5038915;28;20230;-77
2022/03/10 07:43:56;;;;;;;12.97;9.97;;;;;;;;;;5038777;28;20396;-77
2022/03/10 07:46:25;;;;;;;13.80;10.07;;;;;;;;;;5043509;28;20641;-78
2022/03/10 07:48:53;;;;;;;15.40;10.20;;;;;;;;;;5058591;28;20195;-77
2022/03/10 07:51:22;;;;;;;13.90;9.40;;;;;;;;;;5058466;28;20212;-78
2022/03/10 07:53:51;;;;;;;14.33;10.13;;;;;;;;;;5057988;28;20202;-77
2022/03/10 07:56:20;;;;;;;13.43;9.53;;;;;;;;;;5050851;28;20296;-77
2022/03/10 07:58:48;;;;;;;11.57;9.00;;;;;;;;;;5038239;28;20226;-77
2022/03/10 08:01:17;;;;;;;13.67;9.03;;;;;;;;;;5042449;28;20245;-77
2022/03/10 08:03:47;;;;;;;10.47;8.77;;;;;;;;;;5058977;28;20273;-78
2022/03/10 08:06:15;;;;;;;10.07;8.50;;;;;;;;;;5057807;28;20237;-77
2022/03/10 08:08:44;;;;;;;13.40;8.47;;;;;;;;;;5049234;28;20204;-78
2022/03/10 08:11:14;;;;;;;11.27;7.77;;;;;;;;;;5039916;28;20226;-77
2022/03/10 08:13:42;;;;;;;10.80;7.67;;;;;;;;;;5039222;28;20204;-77
2022/03/10 08:16:11;;;;;;;9.03;7.23;;;;;;;;;;5054867;28;20216;-78
2022/03/10 08:18:40;;;;;;;8.80;7.20;;;;;;;;;;5041060;28;20301;-77
2022/03/10 08:21:12;;;;;;;9.33;6.93;;;;;;;;;;5061011;28;20191;-79
2022/03/10 08:23:40;;;;;;;8.33;7.10;;;;;;;;;;5061487;28;20253;-77
2022/03/10 08:26:09;;;;;;;7.90;6.97;;;;;;;;;;5057189;28;20254;-77
2022/03/10 08:28:39;;;;;;;7.53;6.73;;;;;;;;;;5063563;28;20263;-78
2022/03/10 08:31:07;;;;;;;9.50;6.63;;;;;;;;;;5044161;28;20196;-77
2022/03/10 08:33:39;;;;;;;9.93;7.50;;;;;;;;;;5055245;28;20207;-78
2022/03/10 08:36:07;;;;;;;7.97;6.77;;;;;;;;;;5063098;28;20226;-78
2022/03/10 08:38:36;;;;;;;6.87;6.10;;;;;;;;;;5048967;28;20220;-78
2022/03/10 08:41:04;;;;;;;9.23;6.57;;;;;;;;;;5043577;28;20596;-77
2022/03/10 08:43:33;;;;;;;8.23;6.03;;;;;;;;;;5046948;28;20230;-77
2022/03/10 08:46:03;;;;;;;6.37;5.77;;;;;;;;;;5046482;28;20196;-78
2022/03/10 08:48:32;;;;;;;6.63;5.70;;;;;;;;;;5062277;28;20191;-77
2022/03/10 08:51:00;;;;;;;6.67;5.63;;;;;;;;;;5045844;28;20215;-78
2022/03/10 08:53:29;;;;;;;7.17;5.53;;;;;;;;;;5052670;28;20201;-77
2022/03/10 08:55:58;;;;;;;6.73;5.70;;;;;;;;;;5067959;28;20213;-78
2022/03/10 08:58:27;;;;;;;6.93;6.10;;;;;;;;;;5057464;28;20215;-78
2022/03/10 09:00:55;;;;;;;6.87;5.60;;;;;;;;;;5066984;28;20214;-80
2022/03/10 09:03:45;;;;;;;8.43;5.77;;;;;;;;;;5059718;28;20251;-78
2022/03/10 09:06:16;;;;;;;6.10;5.50;;;;;;;;;;5046494;28;20250;-80
2022/03/10 09:08:45;;;;;;;7.63;5.37;;;;;;;;;;5062996;28;20210;-77
2022/03/10 09:11:13;;;;;;;6.37;5.67;;;;;;;;;;5066244;28;20199;-78
2022/03/10 09:13:44;;;;;;;7.40;5.60;;;;;;;;;;5066460;28;20226;-78
2022/03/10 09:16:13;;;;;;;5.87;5.27;;;;;;;;;;5061858;28;20261;-78
2022/03/10 09:18:43;;;;;;;6.20;5.60;;;;;;;;;;5065461;28;20226;-79
2022/03/10 09:21:13;;;;;;;6.43;5.73;;;;;;;;;;5065796;28;20198;-78
2022/03/10 09:23:41;;;;;;;6.63;6.00;;;;;;;;;;5066124;28;20196;-78
2022/03/10 09:26:10;;;;;;;7.73;5.50;;;;;;;;;;5051019;28;20223;-78
2022/03/10 09:28:38;;;;;;;6.20;5.57;;;;;;;;;;5054282;28;20248;-78
2022/03/10 09:31:08;;;;;;;8.20;5.90;;;;;;;;;;5073963;28;20204;-78
2022/03/10 09:33:36;;;;;;;6.73;5.63;;;;;;;;;;5065312;28;20619;-79
2022/03/10 09:36:05;;;;;;;6.37;5.70;;;;;;;;;;5058496;28;20210;-79
2022/03/10 09:38:35;;;;;;;6.83;6.00;;;;;;;;;;5049728;28;20695;-79
2022/03/10 09:41:04;;;;;;;5.77;5.17;;;;;;;;;;5061054;28;20663;-78
2022/03/10 09:43:36;;;;;;;8.33;5.80;;;;;;;;;;5048328;28;20210;-78
2022/03/10 09:46:05;;;;;;;6.87;5.60;;;;;;;;;;5045683;28;20207;-79
2022/03/10 09:48:37;;;;;;;6.20;5.60;;;;;;;;;;5060860;28;20195;-78
2022/03/10 09:51:06;;;;;;;6.60;5.90;;;;;;;;;;5066503;28;20217;-79
2022/03/10 09:53:36;;;;;;;7.60;5.50;;;;;;;;;;5050479;28;20208;-79
2022/03/10 09:56:05;;;;;;;6.73;6.03;;;;;;;;;;5051694;28;20214;-79
2022/03/10 09:58:33;;;;;;;6.80;6.03;;;;;;;;;;5064527;28;20211;-77
2022/03/10 10:01:02;;;;;;;7.13;5.53;;;;;;;;;;5065246;28;20220;-79
2022/03/10 10:03:33;;;;;;;6.80;6.10;;;;;;;;;;5063218;28;20597;-79
2022/03/10 10:06:06;;;;;;;6.30;5.70;;;;;;;;;;5066162;28;20226;-78
2022/03/10 10:08:41;;;;;;;6.90;6.30;;;;;;;;;;5065910;28;20222;-79
2022/03/10 10:11:09;;;;;;;8.83;6.43;;;;;;;;;;5066144;28;20205;-78
2022/03/10 10:13:39;;;;;;;8.13;6.87;;;;;;;;;;5053642;28;20204;-78
2022/03/10 10:16:10;;;;;;;8.80;6.30;;;;;;;;;;5047091;28;20219;-78
2022/03/10 10:18:39;;;;;;;7.23;6.23;;;;;;;;;;5045231;28;20567;-78
2022/03/10 10:21:18;;;;;;;8.03;6.20;;;;;;;;;;5044021;28;20207;-79
2022/03/10 10:23:49;;;;;;;7.93;6.10;;;;;;;;;;5056021;28;20230;-78
2022/03/10 10:26:18;;;;;;;7.07;6.33;;;;;;;;;;5057989;28;20227;-78
2022/03/10 10:28:50;;;;;;;7.97;6.60;;;;;;;;;;5061808;28;20654;-78
2022/03/10 10:31:19;;;;;;;7.43;6.70;;;;;;;;;;5063883;28;20203;-77
2022/03/10 10:33:58;;;;;;;7.43;6.63;;;;;;;;;;5052693;28;20208;-78
2022/03/10 10:36:27;;;;;;;7.27;6.50;;;;;;;;;;5043439;28;20231;-80
2022/03/10 10:38:58;;;;;;;8.13;6.60;;;;;;;;;;5049575;28;20215;-78
2022/03/10 10:41:28;;;;;;;7.67;6.83;;;;;;;;;;5052720;28;20286;-78
2022/03/10 10:43:58;;;;;;;7.37;6.60;;;;;;;;;;5050407;28;20191;-77
2022/03/10 10:46:28;;;;;;;9.57;7.30;;;;;;;;;;5064294;28;20242;-79
2022/03/10 10:48:58;;;;;;;7.00;6.30;;;;;;;;;;5065203;28;20209;-79
2022/03/10 10:51:27;;;;;;;7.97;7.17;;;;;;;;;;5054388;28;20219;-79
2022/03/10 10:53:55;;;;;;;7.67;6.87;;;;;;;;;;5052791;28;20229;-78
2022/03/10 10:56:25;;;;;;;7.83;7.03;;;;;;;;;;5055226;28;20258;-78
2022/03/10 10:58:56;;;;;;;8.00;6.83;;;;;;;;;;5044896;28;20271;-79
2022/03/10 11:01:29;;;;;;;7.57;6.57;;;;;;;;;;5044804;28;20714;-79
2022/03/10 11:03:59;;;;;;;10.70;7.07;;;;;;;;;;5045017;28;20198;-78
2022/03/10 11:06:28;;;;;;;7.67;6.87;;;;;;;;;;5045844;28;20228;-80
2022/03/10 11:09:00;;;;;;;7.50;6.80;;;;;;;;;;5046010;28;20211;-79
2022/03/10 11:11:29;;;;;;;9.90;7.20;;;;;;;;;;5047444;28;20226;-78
2022/03/10 11:14:01;;;;;;;8.13;6.90;;;;;;;;;;5046489;28;20203;-79
2022/03/10 11:16:30;;;;;;;7.80;6.77;;;;;;;;;;5063649;28;20615;-78
2022/03/10 11:19:00;;;;;;;7.47;6.73;;;;;;;;;;5054614;28;20310;-79
2022/03/10 11:21:39;;;;;;;7.50;6.80;;;;;;;;;;5044928;28;20219;-78
2022/03/10 11:24:19;;;;;;;7.97;6.90;;;;;;;;;;5053094;28;20566;-79
2022/03/10 11:26:53;;;;;;;8.63;7.03;;;;;;;;;;5041583;28;20243;-79
2022/03/10 11:29:23;;;;;;;8.97;6.60;;;;;;;;;;5033672;28;20274;-77
2022/03/10 11:31:53;;;;;;;8.00;6.77;;;;;;;;;;5042050;28;20199;-78
2022/03/10 11:34:40;;;;;;;8.00;7.20;;;;;;;;;;5054033;28;20195;-78
2022/03/10 11:37:10;;;;;;;7.65;6.95;;;;;;;;;;5053647;28;20223;-78
2022/03/10 11:39:53;;;;;;;9.98;7.38;;;;;;;;;;5056930;28;20740;-79
2022/03/10 11:42:28;;;;;;;7.85;7.07;;;;;;;;;;5040026;28;20223;-78
2022/03/10 11:45:08;;;;;;;7.60;6.67;;;;;;;;;;5034807;28;20203;-78
2022/03/10 11:47:37;;;;;;;8.10;7.30;;;;;;;;;;5033268;28;20228;-78
2022/03/10 11:50:24;;;;;;;7.40;6.70;;;;;;;;;;5034660;28;20291;-79
2022/03/10 11:52:55;;;;;;;7.68;6.88;;;;;;;;;;5055723;28;20211;-79
2022/03/10 11:55:24;;;;;;;8.23;6.63;;;;;;;;;;5039909;28;20656;-79
2022/03/10 11:58:05;;;;;;;7.70;6.90;;;;;;;;;;5033610;28;20239;-79
2022/03/10 12:00:50;;;;;;;8.82;7.10;;;;;;;;;;5047936;28;20682;-78
2022/03/10 12:03:21;;;;;;;8.65;7.50;;;;;;;;;;5033194;28;20188;-78
2022/03/10 12:05:53;;;;;;;7.72;6.97;;;;;;;;;;5034410;28;20207;-79
2022/03/10 12:08:22;;;;;;;8.23;7.03;;;;;;;;;;5034671;28;20203;-80
2022/03/10 12:10:50;;;;;;;8.40;7.20;;;;;;;;;;5046607;28;20222;-78
2022/03/10 12:13:30;;;;;;;8.93;6.97;;;;;;;;;;5054291;28;20210;-79
2022/03/10 12:15:59;;;;;;;7.55;6.68;;;;;;;;;;5056963;28;20643;-79
2022/03/10 12:18:32;;;;;;;8.00;7.03;;;;;;;;;;5057300;28;20758;-79
2022/03/10 12:21:01;;;;;;;8.25;6.45;;;;;;;;;;5057647;28;20223;-78
2022/03/10 12:23:31;;;;;;;8.35;7.55;;;;;;;;;;5057004;28;20206;-77
2022/03/10 12:26:02;;;;;;;7.43;6.72;;;;;;;;;;5051303;28;20264;-78
2022/03/10 12:28:34;;;;;;;6.93;6.22;;;;;;;;;;5036841;28;20211;-78
2022/03/10 12:31:13;;;;;;;7.65;6.82;;;;;;;;;;5052249;28;20192;-79
2022/03/10 12:33:50;;;;;;;7.50;6.70;;;;;;;;;;5037505;28;20234;-78
2022/03/10 12:36:25;;;;;;;7.07;6.38;;;;;;;;;;5037506;28;20565;-78
2022/03/10 12:38:53;;;;;;;7.00;6.32;;;;;;;;;;5039121;28;20207;-79
2022/03/10 12:41:27;;;;;;;7.25;6.05;;;;;;;;;;5042306;28;20249;-80
2022/03/10 12:44:03;;;;;;;7.78;6.78;;;;;;;;;;5058489;28;20203;-80
2022/03/10 12:46:33;;;;;;;7.18;6.50;;;;;;;;;;5060054;28;20281;-79
2022/03/10 12:49:07;;;;;;;9.68;7.05;;;;;;;;;;5054716;28;20673;-80
2022/03/10 12:51:36;;;;;;;7.55;6.53;;;;;;;;;;5043432;28;20743;-80
2022/03/10 12:54:05;;;;;;;7.65;6.28;;;;;;;;;;5040988;28;20912;-79
2022/03/10 12:56:43;;;;;;;7.72;6.57;;;;;;;;;;5048515;28;20231;-79
2022/03/10 12:59:13;;;;;;;7.00;6.30;;;;;;;;;;5043914;28;20204;-79
2022/03/10 13:01:42;;;;;;;7.10;6.40;;;;;;;;;;5039174;28;20219;-78
2022/03/10 13:04:14;;;;;;;6.95;6.30;;;;;;;;;;5043846;28;20249;-79
2022/03/10 13:06:43;;;;;;;7.55;6.60;;;;;;;;;;5055413;28;20230;-79
2022/03/10 13:09:11;;;;;;;6.82;6.13;;;;;;;;;;5038269;28;20273;-79
2022/03/10 13:11:40;;;;;;;7.95;6.65;;;;;;;;;;5044673;28;20187;-80
2022/03/10 13:14:15;;;;;;;7.90;6.10;;;;;;;;;;5050887;28;20199;-78
2022/03/10 13:16:44;;;;;;;6.43;5.68;;;;;;;;;;5053262;28;20223;-79
2022/03/10 13:19:20;;;;;;;6.00;5.40;;;;;;;;;;5046655;28;20214;-78
2022/03/10 13:21:49;;;;;;;5.18;4.68;;;;;;;;;;5057053;28;20230;-78
2022/03/10 13:24:36;;;;;;;7.35;5.60;;;;;;;;;;5040263;28;20229;-79
2022/03/10 13:27:06;;;;;;;6.20;5.20;;;;;;;;;;5041423;28;20223;-79
2022/03/10 13:29:36;;;;;;;7.55;6.20;;;;;;;;;;5050990;28;20195;-77
2022/03/10 13:32:05;;;;;;;7.25;6.55;;;;;;;;;;5055590;28;20276;-79
2022/03/10 13:34:33;;;;;;;7.82;6.05;;;;;;;;;;5055747;28;20199;-79
2022/03/10 13:37:02;;;;;;;8.05;6.65;;;;;;;;;;5057157;28;20219;-78
2022/03/10 13:39:31;;;;;;;7.63;6.63;;;;;;;;;;5055117;28;20290;-79
2022/03/10 13:41:59;;;;;;;7.27;6.57;;;;;;;;;;5036845;28;20699;-77
2022/03/10 13:44:29;;;;;;;8.17;6.73;;;;;;;;;;5043999;28;20199;-77
2022/03/10 13:47:05;;;;;;;7.50;6.70;;;;;;;;;;5037939;28;20227;-79
2022/03/10 13:49:41;;;;;;;7.80;6.53;;;;;;;;;;5035410;28;20188;-78
2022/03/10 13:52:14;;;;;;;8.37;7.10;;;;;;;;;;5035796;28;20191;-79
2022/03/10 13:54:49;;;;;;;8.00;7.20;;;;;;;;;;5044098;28;20195;-78
2022/03/10 13:57:18;;;;;;;7.73;6.87;;;;;;;;;;5059886;28;20592;-79
2022/03/10 13:59:47;;;;;;;7.67;6.87;;;;;;;;;;5049214;28;20203;-80
2022/03/10 14:02:25;;;;;;;7.73;6.83;;;;;;;;;;5045099;28;20224;-80
2022/03/10 14:04:54;;;;;;;8.73;7.23;;;;;;;;;;5047505;28;20641;-78
2022/03/10 14:07:22;;;;;;;7.80;7.03;;;;;;;;;;5061096;28;20219;-78
2022/03/10 14:09:52;;;;;;;8.53;6.70;;;;;;;;;;5045808;28;20199;-78
2022/03/10 14:12:22;;;;;;;9.53;7.20;;;;;;;;;;5043831;28;20227;-78
2022/03/10 14:14:52;;;;;;;7.90;7.10;;;;;;;;;;5063724;28;20203;-79
2022/03/10 14:17:40;;;;;;;8.00;7.07;;;;;;;;;;5064360;28;20223;-78
2022/03/10 14:20:10;;;;;;;9.07;7.33;;;;;;;;;;5050043;28;20203;-79
2022/03/10 14:22:38;;;;;;;9.30;7.23;;;;;;;;;;5059323;28;20622;-80
2022/03/10 14:25:08;;;;;;;8.07;7.27;;;;;;;;;;5065388;28;20203;-77
2022/03/10 14:27:45;;;;;;;7.60;6.80;;;;;;;;;;5060153;28;20222;-78
2022/03/10 14:30:24;;;;;;;9.30;7.30;;;;;;;;;;5064849;28;20205;-78
2022/03/10 14:32:54;;;;;;;8.40;7.30;;;;;;;;;;5074015;28;20202;-78
2022/03/10 14:35:23;;;;;;;10.17;7.73;;;;;;;;;;5075817;28;20256;-78
2022/03/10 14:37:51;;;;;;;8.63;7.70;;;;;;;;;;5062874;28;20215;-78
2022/03/10 14:40:20;;;;;;;8.43;7.53;;;;;;;;;;5044859;28;20655;-79
2022/03/10 14:42:48;;;;;;;9.67;8.33;;;;;;;;;;5048697;28;20215;-78
2022/03/10 14:45:17;;;;;;;8.00;7.20;;;;;;;;;;5055144;28;20211;-80
2022/03/10 14:47:46;;;;;;;8.17;7.37;;;;;;;;;;5054881;28;20223;-76
2022/03/10 14:50:16;;;;;;;11.13;8.23;;;;;;;;;;5067903;28;20203;-77